sensor_id;sensor_type;location;lat;lon;timestamp;P1;durP1;ratioP1;P2;durP2;ratioP2
65096;SDS011;51686;46.758;4.356;2022-12-24T00:02:15;3.65;;;1.50;;
65096;SDS011;51686;46.758;4.356;2022-12-24T00:05:02;1.75;;;1.25;;
65096;SDS011;51686;46.758;4.356;2022-12-24T00:08:00;2.13;;;1.40;;
65096;SDS011;51686;46.758;4.356;2022-12-24T00:10:48;3.13;;;1.50;;
65096;SDS011;51686;46.758;4.356;2022-12-24T00:13:41;2.13;;;1.40;;
65096;SDS011;51686;46.758;4.356;2022-12-24T00:16:28;3.35;;;1.55;;
65096;SDS011;51686;46.758;4.356;2022-12-24T00:19:15;2.53;;;1.38;;
65096;SDS011;51686;46.758;4.356;2022-12-24T00:22:02;3.03;;;1.45;;
65096;SDS011;51686;46.758;4.356;2022-12-24T00:24:49;1.70;;;1.30;;
65096;SDS011;51686;46.758;4.356;2022-12-24T00:27:36;3.72;;;1.50;;
65096;SDS011;51686;46.758;4.356;2022-12-24T00:30:23;2.17;;;1.40;;
65096;SDS011;51686;46.758;4.356;2022-12-24T00:33:09;3.38;;;1.40;;
65096;SDS011;51686;46.758;4.356;2022-12-24T00:35:56;4.18;;;1.25;;
65096;SDS011;51686;46.758;4.356;2022-12-24T00:38:43;2.88;;;1.50;;
65096;SDS011;51686;46.758;4.356;2022-12-24T00:41:30;2.65;;;1.30;;
65096;SDS011;51686;46.758;4.356;2022-12-24T00:44:17;3.33;;;1.45;;
65096;SDS011;51686;46.758;4.356;2022-12-24T00:47:04;3.85;;;1.45;;
65096;SDS011;51686;46.758;4.356;2022-12-24T00:49:57;4.47;;;1.63;;
65096;SDS011;51686;46.758;4.356;2022-12-24T00:52:44;2.20;;;1.30;;
65096;SDS011;51686;46.758;4.356;2022-12-24T00:55:32;3.30;;;1.40;;
65096;SDS011;51686;46.758;4.356;2022-12-24T00:58:19;3.80;;;1.58;;
65096;SDS011;51686;46.758;4.356;2022-12-24T01:01:06;3.05;;;1.38;;
65096;SDS011;51686;46.758;4.356;2022-12-24T01:03:54;4.43;;;1.50;;
65096;SDS011;51686;46.758;4.356;2022-12-24T01:07:00;3.08;;;1.40;;
65096;SDS011;51686;46.758;4.356;2022-12-24T01:09:47;3.22;;;1.38;;
65096;SDS011;51686;46.758;4.356;2022-12-24T01:12:34;5.47;;;1.42;;
65096;SDS011;51686;46.758;4.356;2022-12-24T01:15:21;4.63;;;1.60;;
65096;SDS011;51686;46.758;4.356;2022-12-24T01:18:11;2.78;;;1.40;;
65096;SDS011;51686;46.758;4.356;2022-12-24T01:21:01;5.25;;;1.80;;
65096;SDS011;51686;46.758;4.356;2022-12-24T01:23:48;3.40;;;1.40;;
65096;SDS011;51686;46.758;4.356;2022-12-24T01:26:41;2.50;;;1.33;;
65096;SDS011;51686;46.758;4.356;2022-12-24T01:29:28;4.63;;;1.52;;
65096;SDS011;51686;46.758;4.356;2022-12-24T01:32:15;3.20;;;1.30;;
65096;SDS011;51686;46.758;4.356;2022-12-24T01:35:02;3.97;;;1.45;;
65096;SDS011;51686;46.758;4.356;2022-12-24T01:37:49;2.45;;;1.35;;
65096;SDS011;51686;46.758;4.356;2022-12-24T01:40:37;3.25;;;1.45;;
65096;SDS011;51686;46.758;4.356;2022-12-24T01:43:45;2.85;;;1.30;;
65096;SDS011;51686;46.758;4.356;2022-12-24T01:46:32;3.58;;;1.40;;
65096;SDS011;51686;46.758;4.356;2022-12-24T01:52:09;4.95;;;1.50;;
65096;SDS011;51686;46.758;4.356;2022-12-24T01:55:01;4.25;;;1.48;;
65096;SDS011;51686;46.758;4.356;2022-12-24T01:57:54;2.45;;;1.20;;
65096;SDS011;51686;46.758;4.356;2022-12-24T02:00:42;3.97;;;1.45;;
65096;SDS011;51686;46.758;4.356;2022-12-24T02:03:31;4.15;;;1.48;;
65096;SDS011;51686;46.758;4.356;2022-12-24T02:06:19;3.53;;;1.50;;
65096;SDS011;51686;46.758;4.356;2022-12-24T02:09:09;3.83;;;1.50;;
65096;SDS011;51686;46.758;4.356;2022-12-24T02:11:56;3.70;;;1.50;;
65096;SDS011;51686;46.758;4.356;2022-12-24T02:14:43;2.63;;;1.40;;
65096;SDS011;51686;46.758;4.356;2022-12-24T02:20:42;4.57;;;1.70;;
65096;SDS011;51686;46.758;4.356;2022-12-24T02:23:50;3.47;;;1.40;;
65096;SDS011;51686;46.758;4.356;2022-12-24T02:30:03;3.50;;;1.35;;
65096;SDS011;51686;46.758;4.356;2022-12-24T02:32:55;2.50;;;1.30;;
65096;SDS011;51686;46.758;4.356;2022-12-24T02:35:53;3.20;;;1.50;;
65096;SDS011;51686;46.758;4.356;2022-12-24T02:39:03;3.08;;;1.45;;
65096;SDS011;51686;46.758;4.356;2022-12-24T02:41:53;5.43;;;1.70;;
65096;SDS011;51686;46.758;4.356;2022-12-24T02:44:55;3.75;;;1.60;;
65096;SDS011;51686;46.758;4.356;2022-12-24T02:47:45;4.93;;;1.50;;
65096;SDS011;51686;46.758;4.356;2022-12-24T02:50:32;3.42;;;1.60;;
65096;SDS011;51686;46.758;4.356;2022-12-24T02:53:19;3.33;;;1.33;;
65096;SDS011;51686;46.758;4.356;2022-12-24T03:03:10;3.95;;;1.65;;
65096;SDS011;51686;46.758;4.356;2022-12-24T03:06:18;2.72;;;1.38;;
65096;SDS011;51686;46.758;4.356;2022-12-24T03:09:17;4.60;;;1.52;;
65096;SDS011;51686;46.758;4.356;2022-12-24T03:12:11;2.50;;;1.25;;
65096;SDS011;51686;46.758;4.356;2022-12-24T03:15:04;4.35;;;1.52;;
65096;SDS011;51686;46.758;4.356;2022-12-24T03:17:53;4.30;;;1.50;;
65096;SDS011;51686;46.758;4.356;2022-12-24T03:20:44;3.72;;;1.50;;
65096;SDS011;51686;46.758;4.356;2022-12-24T03:23:33;3.65;;;1.30;;
65096;SDS011;51686;46.758;4.356;2022-12-24T03:26:20;4.50;;;1.63;;
65096;SDS011;51686;46.758;4.356;2022-12-24T03:29:10;2.10;;;1.20;;
65096;SDS011;51686;46.758;4.356;2022-12-24T03:32:00;2.83;;;1.20;;
65096;SDS011;51686;46.758;4.356;2022-12-24T03:34:48;4.80;;;1.70;;
65096;SDS011;51686;46.758;4.356;2022-12-24T03:37:35;3.92;;;1.27;;
65096;SDS011;51686;46.758;4.356;2022-12-24T03:40:22;2.20;;;1.17;;
65096;SDS011;51686;46.758;4.356;2022-12-24T03:43:09;2.97;;;1.50;;
65096;SDS011;51686;46.758;4.356;2022-12-24T03:45:56;4.10;;;1.48;;
65096;SDS011;51686;46.758;4.356;2022-12-24T03:48:43;5.50;;;1.85;;
65096;SDS011;51686;46.758;4.356;2022-12-24T03:51:29;3.78;;;1.38;;
65096;SDS011;51686;46.758;4.356;2022-12-24T03:54:18;3.45;;;1.40;;
65096;SDS011;51686;46.758;4.356;2022-12-24T03:57:05;4.28;;;1.60;;
65096;SDS011;51686;46.758;4.356;2022-12-24T03:59:52;3.75;;;1.40;;
65096;SDS011;51686;46.758;4.356;2022-12-24T04:02:39;2.88;;;1.40;;
65096;SDS011;51686;46.758;4.356;2022-12-24T04:05:26;2.83;;;1.50;;
65096;SDS011;51686;46.758;4.356;2022-12-24T04:08:13;3.60;;;1.60;;
65096;SDS011;51686;46.758;4.356;2022-12-24T04:11:00;3.50;;;1.67;;
65096;SDS011;51686;46.758;4.356;2022-12-24T04:13:55;3.22;;;1.50;;
65096;SDS011;51686;46.758;4.356;2022-12-24T04:16:41;3.90;;;1.40;;
65096;SDS011;51686;46.758;4.356;2022-12-24T04:19:28;3.15;;;1.50;;
65096;SDS011;51686;46.758;4.356;2022-12-24T04:22:15;4.57;;;1.63;;
65096;SDS011;51686;46.758;4.356;2022-12-24T04:25:02;5.03;;;1.58;;
65096;SDS011;51686;46.758;4.356;2022-12-24T04:27:49;4.07;;;1.60;;
65096;SDS011;51686;46.758;4.356;2022-12-24T04:30:39;2.88;;;1.40;;
65096;SDS011;51686;46.758;4.356;2022-12-24T04:33:27;4.95;;;1.60;;
65096;SDS011;51686;46.758;4.356;2022-12-24T04:36:15;3.92;;;1.40;;
65096;SDS011;51686;46.758;4.356;2022-12-24T04:39:02;3.75;;;1.60;;
65096;SDS011;51686;46.758;4.356;2022-12-24T04:41:49;4.40;;;1.40;;
65096;SDS011;51686;46.758;4.356;2022-12-24T04:44:36;3.08;;;1.45;;
65096;SDS011;51686;46.758;4.356;2022-12-24T04:47:23;6.35;;;1.73;;
65096;SDS011;51686;46.758;4.356;2022-12-24T04:50:13;3.95;;;1.55;;
65096;SDS011;51686;46.758;4.356;2022-12-24T04:53:00;4.43;;;1.58;;
65096;SDS011;51686;46.758;4.356;2022-12-24T04:55:46;4.15;;;1.30;;
65096;SDS011;51686;46.758;4.356;2022-12-24T04:58:33;3.13;;;1.48;;
65096;SDS011;51686;46.758;4.356;2022-12-24T05:01:21;3.88;;;1.65;;
65096;SDS011;51686;46.758;4.356;2022-12-24T05:04:14;5.70;;;1.80;;
65096;SDS011;51686;46.758;4.356;2022-12-24T05:07:00;3.50;;;1.50;;
65096;SDS011;51686;46.758;4.356;2022-12-24T05:09:47;4.28;;;1.42;;
65096;SDS011;51686;46.758;4.356;2022-12-24T05:12:37;2.97;;;1.35;;
65096;SDS011;51686;46.758;4.356;2022-12-24T05:15:24;4.03;;;1.52;;
65096;SDS011;51686;46.758;4.356;2022-12-24T05:18:11;5.05;;;1.70;;
65096;SDS011;51686;46.758;4.356;2022-12-24T05:20:58;4.00;;;1.63;;
65096;SDS011;51686;46.758;4.356;2022-12-24T05:23:44;3.25;;;1.55;;
65096;SDS011;51686;46.758;4.356;2022-12-24T05:26:50;4.85;;;1.50;;
65096;SDS011;51686;46.758;4.356;2022-12-24T05:29:39;3.58;;;1.55;;
65096;SDS011;51686;46.758;4.356;2022-12-24T05:32:25;2.83;;;1.40;;
65096;SDS011;51686;46.758;4.356;2022-12-24T05:35:14;3.63;;;1.45;;
65096;SDS011;51686;46.758;4.356;2022-12-24T05:38:01;2.03;;;1.30;;
65096;SDS011;51686;46.758;4.356;2022-12-24T05:40:48;2.33;;;1.30;;
65096;SDS011;51686;46.758;4.356;2022-12-24T05:43:35;4.70;;;1.55;;
65096;SDS011;51686;46.758;4.356;2022-12-24T05:46:23;5.22;;;1.65;;
65096;SDS011;51686;46.758;4.356;2022-12-24T05:49:13;3.08;;;1.27;;
65096;SDS011;51686;46.758;4.356;2022-12-24T05:52:00;3.33;;;1.40;;
65096;SDS011;51686;46.758;4.356;2022-12-24T05:54:49;3.63;;;1.63;;
65096;SDS011;51686;46.758;4.356;2022-12-24T05:57:37;3.15;;;1.38;;
65096;SDS011;51686;46.758;4.356;2022-12-24T06:03:12;4.28;;;1.50;;
65096;SDS011;51686;46.758;4.356;2022-12-24T06:05:59;2.28;;;1.10;;
65096;SDS011;51686;46.758;4.356;2022-12-24T06:09:06;2.88;;;1.40;;
65096;SDS011;51686;46.758;4.356;2022-12-24T06:11:55;3.78;;;1.40;;
65096;SDS011;51686;46.758;4.356;2022-12-24T06:14:42;3.05;;;1.58;;
65096;SDS011;51686;46.758;4.356;2022-12-24T06:17:29;3.97;;;1.60;;
65096;SDS011;51686;46.758;4.356;2022-12-24T06:20:19;5.00;;;1.67;;
65096;SDS011;51686;46.758;4.356;2022-12-24T06:23:06;4.30;;;1.50;;
65096;SDS011;51686;46.758;4.356;2022-12-24T06:25:54;4.50;;;1.50;;
65096;SDS011;51686;46.758;4.356;2022-12-24T06:28:42;2.22;;;1.30;;
65096;SDS011;51686;46.758;4.356;2022-12-24T06:31:30;4.38;;;1.50;;
65096;SDS011;51686;46.758;4.356;2022-12-24T06:34:17;2.53;;;1.40;;
65096;SDS011;51686;46.758;4.356;2022-12-24T06:37:04;4.10;;;1.50;;
65096;SDS011;51686;46.758;4.356;2022-12-24T06:39:51;4.05;;;1.60;;
65096;SDS011;51686;46.758;4.356;2022-12-24T06:42:37;4.47;;;1.40;;
65096;SDS011;51686;46.758;4.356;2022-12-24T06:45:24;3.70;;;1.60;;
65096;SDS011;51686;46.758;4.356;2022-12-24T06:48:11;5.13;;;1.70;;
65096;SDS011;51686;46.758;4.356;2022-12-24T06:51:00;5.97;;;1.60;;
65096;SDS011;51686;46.758;4.356;2022-12-24T06:53:51;5.10;;;1.60;;
65096;SDS011;51686;46.758;4.356;2022-12-24T06:56:41;3.90;;;1.42;;
65096;SDS011;51686;46.758;4.356;2022-12-24T06:59:28;4.28;;;1.50;;
65096;SDS011;51686;46.758;4.356;2022-12-24T07:02:18;4.18;;;1.70;;
65096;SDS011;51686;46.758;4.356;2022-12-24T07:05:05;2.97;;;1.40;;
65096;SDS011;51686;46.758;4.356;2022-12-24T07:07:55;2.38;;;1.50;;
65096;SDS011;51686;46.758;4.356;2022-12-24T07:10:42;5.25;;;1.58;;
65096;SDS011;51686;46.758;4.356;2022-12-24T07:13:40;2.95;;;1.45;;
65096;SDS011;51686;46.758;4.356;2022-12-24T07:16:26;4.82;;;1.77;;
65096;SDS011;51686;46.758;4.356;2022-12-24T07:19:14;3.75;;;1.50;;
65096;SDS011;51686;46.758;4.356;2022-12-24T07:22:01;2.38;;;1.40;;
65096;SDS011;51686;46.758;4.356;2022-12-24T07:24:57;3.15;;;1.40;;
65096;SDS011;51686;46.758;4.356;2022-12-24T07:27:49;3.28;;;1.33;;
65096;SDS011;51686;46.758;4.356;2022-12-24T07:30:36;2.88;;;1.40;;
65096;SDS011;51686;46.758;4.356;2022-12-24T07:33:23;4.85;;;1.45;;
65096;SDS011;51686;46.758;4.356;2022-12-24T07:36:18;3.92;;;1.38;;
65096;SDS011;51686;46.758;4.356;2022-12-24T07:39:06;5.03;;;1.65;;
65096;SDS011;51686;46.758;4.356;2022-12-24T07:41:53;3.58;;;1.60;;
65096;SDS011;51686;46.758;4.356;2022-12-24T07:44:40;4.22;;;1.75;;
65096;SDS011;51686;46.758;4.356;2022-12-24T07:47:27;3.47;;;1.60;;
65096;SDS011;51686;46.758;4.356;2022-12-24T07:50:16;2.97;;;1.38;;
65096;SDS011;51686;46.758;4.356;2022-12-24T07:53:05;4.40;;;1.60;;
65096;SDS011;51686;46.758;4.356;2022-12-24T07:59:47;4.80;;;1.60;;
65096;SDS011;51686;46.758;4.356;2022-12-24T08:02:40;5.55;;;1.70;;
65096;SDS011;51686;46.758;4.356;2022-12-24T08:06:04;6.53;;;1.65;;
65096;SDS011;51686;46.758;4.356;2022-12-24T08:08:51;6.30;;;1.63;;
65096;SDS011;51686;46.758;4.356;2022-12-24T08:11:37;9.57;;;2.03;;
65096;SDS011;51686;46.758;4.356;2022-12-24T08:14:24;5.35;;;1.60;;
65096;SDS011;51686;46.758;4.356;2022-12-24T08:17:11;5.80;;;1.70;;
65096;SDS011;51686;46.758;4.356;2022-12-24T08:19:58;7.32;;;1.90;;
65096;SDS011;51686;46.758;4.356;2022-12-24T08:22:44;5.40;;;1.80;;
65096;SDS011;51686;46.758;4.356;2022-12-24T08:25:31;5.65;;;1.77;;
65096;SDS011;51686;46.758;4.356;2022-12-24T08:28:18;6.57;;;1.73;;
65096;SDS011;51686;46.758;4.356;2022-12-24T08:31:06;5.53;;;1.90;;
65096;SDS011;51686;46.758;4.356;2022-12-24T08:33:54;6.10;;;1.70;;
65096;SDS011;51686;46.758;4.356;2022-12-24T08:36:40;6.80;;;1.70;;
65096;SDS011;51686;46.758;4.356;2022-12-24T08:39:27;4.43;;;1.63;;
65096;SDS011;51686;46.758;4.356;2022-12-24T08:42:14;6.20;;;1.77;;
65096;SDS011;51686;46.758;4.356;2022-12-24T08:45:04;4.45;;;1.65;;
65096;SDS011;51686;46.758;4.356;2022-12-24T08:47:53;7.03;;;1.88;;
65096;SDS011;51686;46.758;4.356;2022-12-24T08:50:40;4.35;;;1.60;;
65096;SDS011;51686;46.758;4.356;2022-12-24T08:53:28;5.57;;;1.90;;
65096;SDS011;51686;46.758;4.356;2022-12-24T08:56:14;6.70;;;1.85;;
65096;SDS011;51686;46.758;4.356;2022-12-24T08:59:05;6.03;;;1.90;;
65096;SDS011;51686;46.758;4.356;2022-12-24T09:01:52;5.90;;;1.67;;
65096;SDS011;51686;46.758;4.356;2022-12-24T09:04:39;4.95;;;1.80;;
65096;SDS011;51686;46.758;4.356;2022-12-24T09:07:25;6.03;;;1.65;;
65096;SDS011;51686;46.758;4.356;2022-12-24T09:10:15;6.50;;;1.85;;
65096;SDS011;51686;46.758;4.356;2022-12-24T09:13:02;6.32;;;1.63;;
65096;SDS011;51686;46.758;4.356;2022-12-24T09:15:53;6.68;;;2.00;;
65096;SDS011;51686;46.758;4.356;2022-12-24T09:18:40;8.07;;;2.03;;
65096;SDS011;51686;46.758;4.356;2022-12-24T09:21:28;7.30;;;1.77;;
65096;SDS011;51686;46.758;4.356;2022-12-24T09:27:03;6.93;;;1.85;;
65096;SDS011;51686;46.758;4.356;2022-12-24T09:29:50;7.35;;;1.80;;
65096;SDS011;51686;46.758;4.356;2022-12-24T09:32:37;4.63;;;1.70;;
65096;SDS011;51686;46.758;4.356;2022-12-24T09:35:24;8.10;;;2.13;;
65096;SDS011;51686;46.758;4.356;2022-12-24T09:38:11;5.03;;;1.73;;
65096;SDS011;51686;46.758;4.356;2022-12-24T09:40:58;5.72;;;1.80;;
65096;SDS011;51686;46.758;4.356;2022-12-24T09:43:55;5.18;;;1.55;;
65096;SDS011;51686;46.758;4.356;2022-12-24T09:46:46;7.20;;;1.90;;
65096;SDS011;51686;46.758;4.356;2022-12-24T09:49:37;8.18;;;2.00;;
65096;SDS011;51686;46.758;4.356;2022-12-24T09:52:34;4.80;;;1.70;;
65096;SDS011;51686;46.758;4.356;2022-12-24T09:55:24;6.78;;;1.83;;
65096;SDS011;51686;46.758;4.356;2022-12-24T09:58:24;6.82;;;2.00;;
65096;SDS011;51686;46.758;4.356;2022-12-24T10:01:15;7.05;;;2.05;;
65096;SDS011;51686;46.758;4.356;2022-12-24T10:04:15;5.82;;;1.80;;
65096;SDS011;51686;46.758;4.356;2022-12-24T10:08:04;7.97;;;1.80;;
65096;SDS011;51686;46.758;4.356;2022-12-24T10:10:45;7.28;;;1.83;;
65096;SDS011;51686;46.758;4.356;2022-12-24T10:16:48;6.10;;;2.03;;
65096;SDS011;51686;46.758;4.356;2022-12-24T10:19:59;5.50;;;1.90;;
65096;SDS011;51686;46.758;4.356;2022-12-24T10:25:52;6.50;;;1.98;;
65096;SDS011;51686;46.758;4.356;2022-12-24T10:28:48;5.72;;;1.70;;
65096;SDS011;51686;46.758;4.356;2022-12-24T10:31:59;8.35;;;2.55;;
65096;SDS011;51686;46.758;4.356;2022-12-24T10:37:50;8.13;;;2.25;;
65096;SDS011;51686;46.758;4.356;2022-12-24T10:40:42;7.90;;;2.17;;
65096;SDS011;51686;46.758;4.356;2022-12-24T10:43:32;9.88;;;2.10;;
65096;SDS011;51686;46.758;4.356;2022-12-24T10:46:25;8.05;;;2.00;;
65096;SDS011;51686;46.758;4.356;2022-12-24T10:49:18;7.78;;;2.00;;
65096;SDS011;51686;46.758;4.356;2022-12-24T10:52:20;8.82;;;2.03;;
65096;SDS011;51686;46.758;4.356;2022-12-24T10:58:57;6.72;;;1.77;;
65096;SDS011;51686;46.758;4.356;2022-12-24T11:05:32;8.80;;;2.25;;
65096;SDS011;51686;46.758;4.356;2022-12-24T11:12:38;8.95;;;1.98;;
65096;SDS011;51686;46.758;4.356;2022-12-24T11:16:28;6.22;;;1.90;;
65096;SDS011;51686;46.758;4.356;2022-12-24T11:19:30;9.10;;;2.20;;
65096;SDS011;51686;46.758;4.356;2022-12-24T11:22:25;8.80;;;2.08;;
65096;SDS011;51686;46.758;4.356;2022-12-24T11:29:29;7.65;;;2.20;;
65096;SDS011;51686;46.758;4.356;2022-12-24T11:32:44;8.75;;;2.50;;
65096;SDS011;51686;46.758;4.356;2022-12-24T11:36:26;8.93;;;2.53;;
65096;SDS011;51686;46.758;4.356;2022-12-24T11:40:27;7.57;;;2.22;;
65096;SDS011;51686;46.758;4.356;2022-12-24T11:43:46;6.05;;;2.38;;
65096;SDS011;51686;46.758;4.356;2022-12-24T11:50:50;6.57;;;1.85;;
65096;SDS011;51686;46.758;4.356;2022-12-24T11:54:30;7.20;;;1.90;;
65096;SDS011;51686;46.758;4.356;2022-12-24T11:58:40;8.38;;;2.20;;
65096;SDS011;51686;46.758;4.356;2022-12-24T12:12:25;9.18;;;2.28;;
65096;SDS011;51686;46.758;4.356;2022-12-24T12:25:48;6.57;;;2.00;;
65096;SDS011;51686;46.758;4.356;2022-12-24T12:29:35;9.50;;;2.08;;
65096;SDS011;51686;46.758;4.356;2022-12-24T12:56:09;8.32;;;2.25;;
65096;SDS011;51686;46.758;4.356;2022-12-24T12:59:47;6.32;;;2.15;;
65096;SDS011;51686;46.758;4.356;2022-12-24T13:33:51;7.82;;;2.22;;
65096;SDS011;51686;46.758;4.356;2022-12-24T13:37:02;7.53;;;1.80;;
65096;SDS011;51686;46.758;4.356;2022-12-24T13:40:38;7.93;;;2.10;;
65096;SDS011;51686;46.758;4.356;2022-12-24T13:44:00;6.45;;;1.73;;
65096;SDS011;51686;46.758;4.356;2022-12-24T13:50:36;7.13;;;1.65;;
65096;SDS011;51686;46.758;4.356;2022-12-24T13:53:57;6.57;;;1.80;;
65096;SDS011;51686;46.758;4.356;2022-12-24T13:57:22;7.85;;;1.80;;
65096;SDS011;51686;46.758;4.356;2022-12-24T14:04:40;8.10;;;1.80;;
65096;SDS011;51686;46.758;4.356;2022-12-24T14:10:27;7.70;;;1.80;;
65096;SDS011;51686;46.758;4.356;2022-12-24T14:17:55;10.57;;;2.40;;
65096;SDS011;51686;46.758;4.356;2022-12-24T14:25:28;8.35;;;1.92;;
65096;SDS011;51686;46.758;4.356;2022-12-24T14:56:29;8.27;;;2.08;;
65096;SDS011;51686;46.758;4.356;2022-12-24T14:59:52;9.43;;;2.03;;
65096;SDS011;51686;46.758;4.356;2022-12-24T15:13:53;6.70;;;1.70;;
65096;SDS011;51686;46.758;4.356;2022-12-24T15:16:56;8.43;;;2.10;;
65096;SDS011;51686;46.758;4.356;2022-12-24T15:19:46;7.43;;;2.20;;
65096;SDS011;51686;46.758;4.356;2022-12-24T15:22:35;8.90;;;2.10;;
65096;SDS011;51686;46.758;4.356;2022-12-24T15:25:26;7.38;;;2.00;;
65096;SDS011;51686;46.758;4.356;2022-12-24T15:28:16;10.00;;;2.00;;
65096;SDS011;51686;46.758;4.356;2022-12-24T15:31:05;6.82;;;1.90;;
65096;SDS011;51686;46.758;4.356;2022-12-24T15:33:56;8.95;;;2.15;;
65096;SDS011;51686;46.758;4.356;2022-12-24T15:36:44;6.85;;;1.80;;
65096;SDS011;51686;46.758;4.356;2022-12-24T15:39:34;6.35;;;1.80;;
65096;SDS011;51686;46.758;4.356;2022-12-24T15:42:21;10.32;;;2.40;;
65096;SDS011;51686;46.758;4.356;2022-12-24T15:45:16;8.27;;;2.45;;
65096;SDS011;51686;46.758;4.356;2022-12-24T15:48:15;6.20;;;1.77;;
65096;SDS011;51686;46.758;4.356;2022-12-24T15:51:09;9.25;;;1.90;;
65096;SDS011;51686;46.758;4.356;2022-12-24T15:53:57;7.15;;;2.08;;
65096;SDS011;51686;46.758;4.356;2022-12-24T15:56:45;9.68;;;2.10;;
65096;SDS011;51686;46.758;4.356;2022-12-24T15:59:34;7.80;;;1.90;;
65096;SDS011;51686;46.758;4.356;2022-12-24T16:02:31;6.47;;;1.67;;
65096;SDS011;51686;46.758;4.356;2022-12-24T16:17:09;6.63;;;1.83;;
65096;SDS011;51686;46.758;4.356;2022-12-24T16:20:03;8.27;;;1.80;;
65096;SDS011;51686;46.758;4.356;2022-12-24T16:22:51;7.53;;;1.88;;
65096;SDS011;51686;46.758;4.356;2022-12-24T16:25:38;7.00;;;2.00;;
65096;SDS011;51686;46.758;4.356;2022-12-24T16:28:25;5.80;;;2.13;;
65096;SDS011;51686;46.758;4.356;2022-12-24T16:31:16;6.22;;;1.80;;
65096;SDS011;51686;46.758;4.356;2022-12-24T16:34:08;8.18;;;1.95;;
65096;SDS011;51686;46.758;4.356;2022-12-24T16:37:00;7.88;;;2.13;;
65096;SDS011;51686;46.758;4.356;2022-12-24T16:39:47;6.05;;;1.75;;
65096;SDS011;51686;46.758;4.356;2022-12-24T16:42:39;5.65;;;1.70;;
65096;SDS011;51686;46.758;4.356;2022-12-24T16:45:45;4.53;;;1.40;;
65096;SDS011;51686;46.758;4.356;2022-12-24T16:48:32;5.72;;;1.70;;
65096;SDS011;51686;46.758;4.356;2022-12-24T16:51:22;5.18;;;1.60;;
65096;SDS011;51686;46.758;4.356;2022-12-24T16:54:12;5.60;;;1.70;;
65096;SDS011;51686;46.758;4.356;2022-12-24T16:57:02;4.80;;;1.90;;
65096;SDS011;51686;46.758;4.356;2022-12-24T16:59:49;4.55;;;1.77;;
65096;SDS011;51686;46.758;4.356;2022-12-24T17:02:37;5.78;;;1.63;;
65096;SDS011;51686;46.758;4.356;2022-12-24T17:05:25;7.90;;;1.80;;
65096;SDS011;51686;46.758;4.356;2022-12-24T17:08:12;6.07;;;1.80;;
65096;SDS011;51686;46.758;4.356;2022-12-24T17:10:59;6.00;;;1.67;;
65096;SDS011;51686;46.758;4.356;2022-12-24T17:13:46;5.15;;;1.80;;
65096;SDS011;51686;46.758;4.356;2022-12-24T17:16:33;5.10;;;1.50;;
65096;SDS011;51686;46.758;4.356;2022-12-24T17:19:20;5.05;;;1.80;;
65096;SDS011;51686;46.758;4.356;2022-12-24T17:22:06;4.45;;;1.65;;
65096;SDS011;51686;46.758;4.356;2022-12-24T17:24:54;4.70;;;1.80;;
65096;SDS011;51686;46.758;4.356;2022-12-24T17:27:40;4.28;;;1.40;;
65096;SDS011;51686;46.758;4.356;2022-12-24T17:30:27;5.35;;;1.48;;
65096;SDS011;51686;46.758;4.356;2022-12-24T17:33:14;7.07;;;2.00;;
65096;SDS011;51686;46.758;4.356;2022-12-24T17:36:01;5.43;;;1.70;;
65096;SDS011;51686;46.758;4.356;2022-12-24T17:38:51;6.53;;;1.88;;
65096;SDS011;51686;46.758;4.356;2022-12-24T17:41:38;5.13;;;1.80;;
65096;SDS011;51686;46.758;4.356;2022-12-24T17:44:25;5.55;;;1.95;;
65096;SDS011;51686;46.758;4.356;2022-12-24T17:47:12;5.93;;;1.70;;
65096;SDS011;51686;46.758;4.356;2022-12-24T17:49:59;5.85;;;1.75;;
65096;SDS011;51686;46.758;4.356;2022-12-24T17:52:46;4.47;;;1.60;;
65096;SDS011;51686;46.758;4.356;2022-12-24T17:55:33;6.20;;;1.65;;
65096;SDS011;51686;46.758;4.356;2022-12-24T17:58:19;5.40;;;1.70;;
65096;SDS011;51686;46.758;4.356;2022-12-24T18:01:08;3.53;;;1.50;;
65096;SDS011;51686;46.758;4.356;2022-12-24T18:04:01;4.50;;;1.60;;
65096;SDS011;51686;46.758;4.356;2022-12-24T18:06:48;6.38;;;1.70;;
65096;SDS011;51686;46.758;4.356;2022-12-24T18:09:47;4.75;;;1.60;;
65096;SDS011;51686;46.758;4.356;2022-12-24T18:12:40;5.72;;;1.70;;
65096;SDS011;51686;46.758;4.356;2022-12-24T18:15:31;4.07;;;1.70;;
65096;SDS011;51686;46.758;4.356;2022-12-24T18:18:19;4.68;;;1.60;;
65096;SDS011;51686;46.758;4.356;2022-12-24T18:21:06;5.60;;;1.80;;
65096;SDS011;51686;46.758;4.356;2022-12-24T18:24:07;3.42;;;1.60;;
65096;SDS011;51686;46.758;4.356;2022-12-24T18:26:54;6.13;;;1.83;;
65096;SDS011;51686;46.758;4.356;2022-12-24T18:29:42;5.43;;;1.40;;
65096;SDS011;51686;46.758;4.356;2022-12-24T18:32:29;4.13;;;1.75;;
65096;SDS011;51686;46.758;4.356;2022-12-24T18:35:19;4.70;;;1.58;;
65096;SDS011;51686;46.758;4.356;2022-12-24T18:38:07;4.07;;;1.70;;
65096;SDS011;51686;46.758;4.356;2022-12-24T18:40:54;4.80;;;1.80;;
65096;SDS011;51686;46.758;4.356;2022-12-24T18:43:47;4.47;;;1.50;;
65096;SDS011;51686;46.758;4.356;2022-12-24T18:46:35;4.18;;;1.50;;
65096;SDS011;51686;46.758;4.356;2022-12-24T18:49:21;5.35;;;1.70;;
65096;SDS011;51686;46.758;4.356;2022-12-24T18:52:09;4.72;;;1.77;;
65096;SDS011;51686;46.758;4.356;2022-12-24T18:54:56;3.45;;;1.60;;
65096;SDS011;51686;46.758;4.356;2022-12-24T18:57:43;6.10;;;1.63;;
65096;SDS011;51686;46.758;4.356;2022-12-24T19:00:34;5.90;;;1.90;;
65096;SDS011;51686;46.758;4.356;2022-12-24T19:03:24;4.90;;;1.70;;
65096;SDS011;51686;46.758;4.356;2022-12-24T19:06:25;4.45;;;1.58;;
65096;SDS011;51686;46.758;4.356;2022-12-24T19:09:23;4.47;;;1.60;;
65096;SDS011;51686;46.758;4.356;2022-12-24T19:15:18;4.13;;;1.60;;
65096;SDS011;51686;46.758;4.356;2022-12-24T19:18:07;4.55;;;1.70;;
65096;SDS011;51686;46.758;4.356;2022-12-24T19:20:56;5.20;;;1.70;;
65096;SDS011;51686;46.758;4.356;2022-12-24T19:23:43;4.60;;;1.70;;
65096;SDS011;51686;46.758;4.356;2022-12-24T19:26:34;3.90;;;1.60;;
65096;SDS011;51686;46.758;4.356;2022-12-24T19:29:22;5.93;;;1.90;;
65096;SDS011;51686;46.758;4.356;2022-12-24T19:32:09;4.95;;;1.90;;
65096;SDS011;51686;46.758;4.356;2022-12-24T19:34:56;5.32;;;1.90;;
65096;SDS011;51686;46.758;4.356;2022-12-24T19:37:45;4.53;;;1.70;;
65096;SDS011;51686;46.758;4.356;2022-12-24T19:40:34;3.75;;;1.65;;
65096;SDS011;51686;46.758;4.356;2022-12-24T19:43:23;5.93;;;1.90;;
65096;SDS011;51686;46.758;4.356;2022-12-24T19:49:04;3.85;;;1.70;;
65096;SDS011;51686;46.758;4.356;2022-12-24T19:51:52;3.70;;;1.67;;
65096;SDS011;51686;46.758;4.356;2022-12-24T19:54:40;4.65;;;1.70;;
65096;SDS011;51686;46.758;4.356;2022-12-24T19:57:32;5.38;;;2.03;;
65096;SDS011;51686;46.758;4.356;2022-12-24T20:00:28;4.55;;;1.80;;
65096;SDS011;51686;46.758;4.356;2022-12-24T20:03:15;4.72;;;1.75;;
65096;SDS011;51686;46.758;4.356;2022-12-24T20:06:04;4.70;;;1.80;;
65096;SDS011;51686;46.758;4.356;2022-12-24T20:09:03;8.02;;;2.28;;
65096;SDS011;51686;46.758;4.356;2022-12-24T20:12:05;6.72;;;1.83;;
65096;SDS011;51686;46.758;4.356;2022-12-24T20:14:58;5.45;;;2.10;;
65096;SDS011;51686;46.758;4.356;2022-12-24T20:17:52;6.35;;;2.40;;
65096;SDS011;51686;46.758;4.356;2022-12-24T20:20:40;6.20;;;2.33;;
65096;SDS011;51686;46.758;4.356;2022-12-24T20:23:31;4.47;;;1.77;;
65096;SDS011;51686;46.758;4.356;2022-12-24T20:26:20;5.55;;;2.22;;
65096;SDS011;51686;46.758;4.356;2022-12-24T20:29:11;4.90;;;1.92;;
65096;SDS011;51686;46.758;4.356;2022-12-24T20:32:03;5.60;;;2.05;;
65096;SDS011;51686;46.758;4.356;2022-12-24T20:34:53;8.45;;;2.45;;
65096;SDS011;51686;46.758;4.356;2022-12-24T20:37:40;6.75;;;2.33;;
65096;SDS011;51686;46.758;4.356;2022-12-24T20:40:38;6.32;;;2.20;;
65096;SDS011;51686;46.758;4.356;2022-12-24T20:43:26;6.30;;;2.42;;
65096;SDS011;51686;46.758;4.356;2022-12-24T20:46:24;6.47;;;2.45;;